• Join FlightAware (Why Join?)
  • Login
  • US Flag 
07:35AM EDT


 

Airport Tracker/Info


-or-


 

Live Flight TrackerFlight Track Log ✈ SWA1086 ✈ 15-Apr-2013 ✈ KOKC - KMCI

Flight Track Log - Related Links

Times and Time Zones

All times are in EDT time to prevent confusion due to time zone crossing. See the SWA1086 flight status page for this flight to view local times or setup timezone preferences in your user account.

Time Position Orientation Groundspeed Altitude Reporting Facility
EDT Latitude Longitude Course Direction KTS MPH feet Rate Location/Type
11:09AM 35.4186 -97.6072 10° North 166 191 2,900  Level Fort Worth Center
11:10AM 35.4561 -97.5994 10° North 227 261 4,000 2,400 Climbing Fort Worth Center
11:11AM 35.5353 -97.6022 358° North 329 379 6,800 2,760 Climbing Fort Worth Center
11:12AM 35.6694 -97.5958 North 323 372 11,500 3,120 Climbing Kansas City Center
11:13AM 35.7881 -97.5975 359° North 346 398 15,400 3,300 Climbing Kansas City Center
11:14AM 35.8864 -97.5575 18° North 376 433 18,400 2,520 Climbing Kansas City Center
11:15AM 35.9819 -97.4900 30° Northeast 391 450 20,700 2,100 Climbing Kansas City Center
11:16AM 36.0814 -97.4208 29° Northeast 403 464 22,800 1,860 Climbing Kansas City Center
11:17AM 36.1850 -97.3464 30° Northeast 423 487 24,600 1,800 Climbing Kansas City Center
11:18AM 36.2914 -97.2722 29° Northeast 435 501 26,500 1,800 Climbing Kansas City Center
11:20AM 36.4208 -97.1783 30° Northeast 446 513 28,400 1,620 Climbing Kansas City Center
11:21AM 36.5331 -97.1003 29° Northeast 457 526 29,900 1,320 Climbing Kansas City Center
11:22AM 36.6450 -97.0189 30° Northeast 464 534 31,200 1,380 Climbing Kansas City Center
11:23AM 36.7592 -96.9378 30° Northeast 466 536 32,800 1,500 Climbing Kansas City Center
11:24AM 36.8639 -96.8619 30° Northeast 468 539 34,400 1,020 Climbing Kansas City Center
11:25AM 36.9989 -96.7656 30° Northeast 469 540 35,000 240 Climbing Kansas City Center
11:26AM 37.0997 -96.6914 30° Northeast 468 539 35,000  Level Kansas City Center
11:27AM 37.2239 -96.6017 30° Northeast 469 540 35,000  Level Kansas City Center
11:28AM 37.3339 -96.5211 30° Northeast 464 534 35,000  Level Kansas City Center
11:29AM 37.4569 -96.4311 30° Northeast 459 528 35,000  Level Kansas City Center
11:30AM 37.5672 -96.3511 30° Northeast 456 525 35,000  Level Kansas City Center
11:31AM 37.6853 -96.2636 30° Northeast 460 529 35,000  Level Kansas City Center
11:32AM 37.7936 -96.1844 30° Northeast 453 521 35,000 -120 Level Kansas City Center
11:33AM 37.8972 -96.1061 31° Northeast 456 525 34,800 -2,040 Descending Kansas City Center
11:34AM 38.0281 -96.0111 30° Northeast 465 535 30,800 -3,420 Descending Kansas City Center
11:35AM 38.1392 -95.9281 30° Northeast 478 550 27,700 -2,940 Descending Kansas City Center
11:36AM 38.2661 -95.8325 31° Northeast 476 548 24,700 -2,640 Descending Kansas City Center
11:37AM 38.3703 -95.7522 31° Northeast 461 531 22,300 -2,160 Descending Kansas City Center
11:38AM 38.4878 -95.6631 31° Northeast 441 507 20,300 -1,560 Descending Kansas City Center
11:39AM 38.5783 -95.5942 31° Northeast 401 461 19,100 -2,760 Descending Kansas City Center
11:40AM 38.6903 -95.5142 29° Northeast 414 476 14,800 -3,300 Descending Kansas City Center
11:41AM 38.7886 -95.4444 29° Northeast 421 484 12,500 -1,980 Descending Kansas City Center
11:42AM 38.8547 -95.3397 51° Northeast 399 459 10,700 -1,380 Descending Kansas City Center
11:43AM 38.9208 -95.2278 53° Northeast 350 403 9,700 -1,200 Descending Kansas City Center
11:44AM 38.9814 -95.1303 51° Northeast 318 366 8,300 -1,260 Descending Kansas City Center
11:45AM 39.0322 -95.0494 51° Northeast 307 353 7,100 -1,200 Descending Kansas City Center
11:46AM 39.0861 -94.9625 51° Northeast 281 323 5,800 -1,080 Descending Kansas City Center
11:47AM 39.1294 -94.8917 52° Northeast 267 307 4,900 -780 Descending Kansas City Center
11:48AM 39.1728 -94.8225 51° Northeast 222 255 4,200 -960 Descending Kansas City Center
11:49AM 39.2050 -94.7697 52° Northeast 200 230 2,900 -1,080 Descending Kansas City Center
11:51AM 39.2436 -94.7444 27° Northeast 172 198 2,100 -840 Descending Kansas City Center
11:52AM 39.2847 -94.7319 13° North 136 157 1,200 -900 Descending Kansas City Center
11:54AM 39.2833 -94.7000 67° East  Level FlightAware Approximate